Time;durP1;ratioP1;P1;durP2;ratioP2;P2;SDS_P1;SDS_P2;PMS_P1;PMS_P2;Temp;Humidity;BMP_temperature;BMP_pressure;BME280_temperature;BME280_humidity;BME280_pressure;Samples;Min_cycle;Max_cycle;Signal;HPM_P1;HPM_P2
2022/05/13 00:01:04;;;;;;;9.95;3.03;;;8.90;71.70;;;;;;4179702;28;20254;-82
2022/05/13 00:03:05;;;;;;;15.82;3.22;;;8.90;71.70;;;;;;4177048;28;20173;-82
2022/05/13 00:05:07;;;;;;;12.90;3.10;;;8.90;71.70;;;;;;4180662;28;20025;-81
2022/05/13 00:07:08;;;;;;;17.55;3.42;;;8.90;71.90;;;;;;4149250;28;20172;-82
2022/05/13 00:09:09;;;;;;;10.80;3.42;;;8.80;71.80;;;;;;4160403;28;20041;-82
2022/05/13 00:11:10;;;;;;;10.35;3.55;;;8.80;71.70;;;;;;4180468;28;20111;-82
2022/05/13 00:13:11;;;;;;;14.95;3.78;;;8.80;71.90;;;;;;4178167;28;20040;-82
2022/05/13 00:15:16;;;;;;;11.48;3.28;;;8.80;71.90;;;;;;4181140;28;20021;-82
2022/05/13 00:17:17;;;;;;;16.33;4.18;;;8.80;72.00;;;;;;4176863;28;20335;-82
2022/05/13 00:19:18;;;;;;;18.85;3.70;;;8.80;72.10;;;;;;4181820;28;20029;-82
2022/05/13 00:21:19;;;;;;;10.48;3.47;;;8.70;72.00;;;;;;4180081;28;20025;-84
2022/05/13 00:23:20;;;;;;;15.88;3.38;;;8.70;72.10;;;;;;4180416;28;20092;-83
2022/05/13 00:25:28;;;;;;;11.57;3.15;;;8.70;72.10;;;;;;4158194;28;20038;-84
2022/05/13 00:27:29;;;;;;;13.60;3.03;;;8.70;72.20;;;;;;4177268;28;20212;-81
2022/05/13 00:29:30;;;;;;;8.20;3.30;;;8.70;72.30;;;;;;4167136;28;20160;-81
2022/05/13 00:31:30;;;;;;;19.65;3.95;;;8.70;72.30;;;;;;4179867;28;20033;-82
2022/05/13 00:33:32;;;;;;;13.27;3.50;;;8.70;72.50;;;;;;4161015;28;20053;-84
2022/05/13 00:35:33;;;;;;;12.35;2.97;;;8.70;72.60;;;;;;4180802;28;20029;-82
2022/05/13 00:37:34;;;;;;;14.43;4.10;;;8.70;72.70;;;;;;4177099;28;20232;-82
2022/05/13 00:39:35;;;;;;;10.80;3.55;;;8.70;73.20;;;;;;4178206;28;20033;-83
2022/05/13 00:41:36;;;;;;;14.23;3.13;;;8.70;73.40;;;;;;4160342;28;20026;-84
2022/05/13 00:43:47;;;;;;;16.67;3.67;;;8.70;73.30;;;;;;4174398;28;20035;-82
2022/05/13 00:45:48;;;;;;;14.57;3.58;;;8.70;73.20;;;;;;4174016;28;20032;-83
2022/05/13 00:47:48;;;;;;;16.42;2.97;;;8.70;73.50;;;;;;4178562;28;20028;-81
2022/05/13 00:49:50;;;;;;;9.77;2.97;;;8.70;73.60;;;;;;4184056;28;20083;-82
2022/05/13 00:51:51;;;;;;;12.43;3.63;;;8.70;73.50;;;;;;4184090;28;20140;-83
2022/05/13 00:53:52;;;;;;;10.15;4.00;;;8.70;73.70;;;;;;4162475;28;20117;-82
2022/05/13 00:55:54;;;;;;;11.30;3.95;;;8.70;74.00;;;;;;4159464;28;20366;-82
2022/05/13 00:57:56;;;;;;;13.35;3.58;;;8.70;73.90;;;;;;4162149;28;20029;-82
2022/05/13 00:59:57;;;;;;;10.80;3.25;;;8.70;74.00;;;;;;4173234;28;20052;-82
2022/05/13 01:01:57;;;;;;;15.45;3.97;;;8.70;73.90;;;;;;4178065;28;20033;-82
2022/05/13 01:04:02;;;;;;;12.45;3.80;;;8.70;74.10;;;;;;4177662;28;20115;-84
2022/05/13 01:06:06;;;;;;;17.55;4.78;;;8.70;74.40;;;;;;4162427;28;20044;-84
2022/05/13 01:08:08;;;;;;;15.23;4.25;;;8.70;74.60;;;;;;4174897;28;20081;-83
2022/05/13 01:10:18;;;;;;;23.00;4.03;;;8.70;74.40;;;;;;4158450;28;20029;-83
2022/05/13 01:12:29;;;;;;;12.18;3.58;;;8.70;74.70;;;;;;4174743;28;20025;-82
2022/05/13 01:14:36;;;;;;;13.88;3.75;;;8.70;74.60;;;;;;4159921;28;20083;-83
2022/05/13 01:18:55;;;;;;;10.98;3.58;;;8.70;74.40;;;;;;4173307;28;20084;-84
2022/05/13 01:20:56;;;;;;;18.25;4.20;;;8.70;74.40;;;;;;4179533;28;20032;-83
2022/05/13 01:23:03;;;;;;;12.63;3.70;;;8.70;74.40;;;;;;4154420;28;20577;-82
2022/05/13 01:25:04;;;;;;;14.30;4.05;;;8.70;74.60;;;;;;4175089;28;20092;-83
2022/05/13 01:27:05;;;;;;;14.68;4.20;;;8.60;74.40;;;;;;4174761;28;20086;-82
2022/05/13 01:29:05;;;;;;;12.27;4.30;;;8.70;74.70;;;;;;4154579;28;20014;-83
2022/05/13 01:31:13;;;;;;;11.18;4.00;;;8.70;74.80;;;;;;4168937;28;20040;-82
2022/05/13 01:33:15;;;;;;;10.73;4.22;;;8.70;74.70;;;;;;4169759;28;20118;-81
2022/05/13 01:35:15;;;;;;;10.70;3.80;;;8.60;74.60;;;;;;4174252;28;20419;-82
2022/05/13 01:37:16;;;;;;;15.15;4.55;;;8.60;74.80;;;;;;4172525;28;20032;-82
2022/05/13 01:39:17;;;;;;;22.20;4.88;;;8.60;75.00;;;;;;4185392;28;20783;-83
2022/05/13 01:41:18;;;;;;;10.50;4.97;;;8.60;75.10;;;;;;4178903;28;20021;-82
2022/05/13 01:43:19;;;;;;;10.57;3.95;;;8.60;74.90;;;;;;4182501;28;20056;-83
2022/05/13 01:45:20;;;;;;;15.18;4.30;;;8.60;75.00;;;;;;4147691;28;20979;-82
2022/05/13 01:47:20;;;;;;;16.15;4.15;;;8.60;75.10;;;;;;4171874;28;20036;-81
2022/05/13 01:49:21;;;;;;;18.55;4.22;;;8.60;75.00;;;;;;4150105;28;20030;-82
2022/05/13 01:51:22;;;;;;;15.27;3.90;;;8.60;76.00;;;;;;4172261;28;20442;-82
2022/05/13 01:53:23;;;;;;;10.35;4.22;;;8.60;75.20;;;;;;4174998;28;20044;-82
2022/05/13 01:55:24;;;;;;;15.80;4.07;;;8.60;75.30;;;;;;4154844;28;20037;-81
2022/05/13 01:57:25;;;;;;;14.63;3.97;;;8.60;75.40;;;;;;4156390;28;20039;-82
2022/05/13 01:59:25;;;;;;;16.10;3.83;;;8.60;75.30;;;;;;4168910;28;20107;-83
2022/05/13 02:01:26;;;;;;;14.88;4.45;;;8.60;75.20;;;;;;4170487;28;20037;-83
2022/05/13 02:03:45;;;;;;;11.10;4.38;;;8.60;75.30;;;;;;4150610;28;20033;-82
2022/05/13 02:05:46;;;;;;;13.00;4.25;;;8.60;75.40;;;;;;4167412;28;20025;-83
2022/05/13 02:07:47;;;;;;;12.10;3.90;;;8.70;75.30;;;;;;4150112;28;20060;-83
2022/05/13 02:09:47;;;;;;;15.18;4.93;;;8.60;75.40;;;;;;4151342;28;20128;-82
2022/05/13 02:11:48;;;;;;;18.70;4.90;;;8.70;75.70;;;;;;4168820;28;20110;-83
2022/05/13 02:13:51;;;;;;;13.45;4.30;;;8.60;75.70;;;;;;4155050;28;20036;-83
2022/05/13 02:15:52;;;;;;;16.95;4.00;;;8.60;75.80;;;;;;4157141;28;20451;-82
2022/05/13 02:17:53;;;;;;;14.00;4.55;;;8.60;75.70;;;;;;4172279;28;20025;-82
2022/05/13 02:19:53;;;;;;;11.88;4.55;;;8.60;75.80;;;;;;4155779;28;20033;-84
2022/05/13 02:21:54;;;;;;;16.58;4.93;;;8.70;76.10;;;;;;4154450;28;20594;-81
2022/05/13 02:23:54;;;;;;;12.63;4.35;;;8.60;75.70;;;;;;4152323;28;20041;-82
2022/05/13 02:26:01;;;;;;;18.17;4.05;;;8.70;75.80;;;;;;4158390;28;20029;-83
2022/05/13 02:28:03;;;;;;;16.17;4.47;;;8.60;75.80;;;;;;4160542;28;20069;-83
2022/05/13 02:30:05;;;;;;;16.00;4.95;;;8.70;76.10;;;;;;4177904;28;20082;-83
2022/05/13 02:32:06;;;;;;;17.33;4.95;;;8.70;76.40;;;;;;4173310;28;20529;-82
2022/05/13 02:34:07;;;;;;;12.95;4.55;;;8.70;76.40;;;;;;4156244;28;20037;-82
2022/05/13 02:36:09;;;;;;;14.93;5.40;;;8.60;76.20;;;;;;4171877;28;20359;-83
2022/05/13 02:38:13;;;;;;;9.45;4.85;;;8.70;76.30;;;;;;4175292;28;20037;-82
2022/05/13 02:40:14;;;;;;;14.07;5.43;;;8.70;76.50;;;;;;4152376;28;20034;-83
2022/05/13 02:42:15;;;;;;;15.80;5.18;;;8.70;76.50;;;;;;4175499;28;20029;-82
2022/05/13 02:44:16;;;;;;;18.10;5.22;;;8.70;76.90;;;;;;4174653;28;20348;-83
2022/05/13 02:46:20;;;;;;;13.43;4.55;;;8.70;77.00;;;;;;4171164;28;20032;-82
2022/05/13 02:48:21;;;;;;;11.98;4.90;;;8.80;76.90;;;;;;4152029;28;20055;-82
2022/05/13 02:50:21;;;;;;;13.32;5.05;;;8.80;77.00;;;;;;4173091;28;20033;-82
2022/05/13 02:52:22;;;;;;;18.27;5.43;;;8.80;77.00;;;;;;4166891;28;20025;-81
2022/05/13 02:54:23;;;;;;;14.93;4.97;;;8.80;77.00;;;;;;4176016;28;20037;-82
2022/05/13 02:56:24;;;;;;;14.13;4.90;;;8.80;77.00;;;;;;4171200;28;20056;-82
2022/05/13 02:58:25;;;;;;;18.45;5.47;;;8.80;76.90;;;;;;4154957;28;20220;-82
2022/05/13 03:00:26;;;;;;;13.10;4.93;;;8.90;77.20;;;;;;4173496;28;20044;-82
2022/05/13 03:02:27;;;;;;;10.25;4.90;;;8.90;77.10;;;;;;4153211;28;20033;-81
2022/05/13 03:04:27;;;;;;;19.35;5.10;;;8.90;77.00;;;;;;4175173;28;20032;-82
2022/05/13 03:06:28;;;;;;;14.90;4.90;;;8.90;77.20;;;;;;4176671;28;20049;-82
2022/05/13 03:08:29;;;;;;;18.20;5.47;;;8.90;77.10;;;;;;4169845;28;20033;-81
2022/05/13 03:10:31;;;;;;;18.05;5.63;;;8.90;77.20;;;;;;4159741;28;20037;-81
2022/05/13 03:12:33;;;;;;;13.73;5.13;;;9.00;77.20;;;;;;4159489;28;20938;-82
2022/05/13 03:14:33;;;;;;;16.17;4.45;;;9.00;77.20;;;;;;4170676;28;20388;-83
2022/05/13 03:16:36;;;;;;;13.15;5.18;;;9.00;77.00;;;;;;4169486;28;20029;-82
2022/05/13 03:18:40;;;;;;;15.03;5.13;;;9.00;77.20;;;;;;4173441;28;20037;-81
2022/05/13 03:20:41;;;;;;;14.63;4.93;;;9.00;77.00;;;;;;4171412;28;20284;-82
2022/05/13 03:22:41;;;;;;;14.38;5.40;;;9.10;77.00;;;;;;4172681;28;20055;-83
2022/05/13 03:24:42;;;;;;;14.50;4.97;;;9.10;77.00;;;;;;4171941;28;20052;-81
2022/05/13 03:26:43;;;;;;;15.85;4.72;;;9.10;77.00;;;;;;4161695;28;20021;-80
2022/05/13 03:28:43;;;;;;;17.63;4.95;;;9.10;77.00;;;;;;4150369;28;20041;-81
2022/05/13 03:30:44;;;;;;;15.65;5.18;;;9.10;76.90;;;;;;4162912;28;20025;-82
2022/05/13 03:32:45;;;;;;;16.92;4.85;;;9.10;77.00;;;;;;4152449;28;20045;-82
2022/05/13 03:34:45;;;;;;;11.93;4.63;;;9.20;76.90;;;;;;4153450;28;20037;-81
2022/05/13 03:36:46;;;;;;;16.58;5.00;;;9.20;76.90;;;;;;4170056;28;20094;-81
2022/05/13 03:38:47;;;;;;;13.20;5.45;;;9.20;76.80;;;;;;4175828;28;20032;-82
2022/05/13 03:40:48;;;;;;;18.65;5.38;;;9.20;76.90;;;;;;4166164;28;20052;-84
2022/05/13 03:42:49;;;;;;;13.45;5.10;;;9.20;76.80;;;;;;4173495;28;20036;-82
2022/05/13 03:44:50;;;;;;;19.80;6.18;;;9.20;76.80;;;;;;4172627;28;20137;-83
2022/05/13 03:46:51;;;;;;;18.75;5.80;;;9.30;77.20;;;;;;4179609;28;20371;-83
2022/05/13 03:48:51;;;;;;;11.63;5.47;;;9.30;76.90;;;;;;4172544;28;20025;-83
2022/05/13 03:50:52;;;;;;;18.05;4.90;;;9.30;76.80;;;;;;4157376;28;20029;-83
2022/05/13 03:52:53;;;;;;;12.60;5.63;;;9.30;76.80;;;;;;4151210;28;20037;-81
2022/05/13 03:54:54;;;;;;;11.98;5.28;;;9.30;77.50;;;;;;4169424;28;20043;-81
2022/05/13 03:56:54;;;;;;;10.98;5.03;;;9.30;76.80;;;;;;4168695;28;20052;-81
2022/05/13 03:58:55;;;;;;;20.33;6.05;;;9.30;76.70;;;;;;4170978;28;20719;-82
2022/05/13 04:00:56;;;;;;;11.80;5.40;;;9.30;76.90;;;;;;4169347;28;20517;-82
2022/05/13 04:02:57;;;;;;;12.55;5.53;;;9.40;77.50;;;;;;4155572;28;20025;-82
2022/05/13 04:09:37;;;;;;;20.13;5.35;;;9.40;76.70;;;;;;4169710;28;20029;-81
2022/05/13 04:11:40;;;;;;;17.35;5.97;;;9.40;76.80;;;;;;4153825;28;20029;-82
2022/05/13 04:16:06;;;;;;;19.30;4.68;;;9.40;76.70;;;;;;4167652;28;20025;-81
2022/05/13 04:18:07;;;;;;;16.40;5.72;;;9.40;76.60;;;;;;4141463;28;20033;-81
2022/05/13 04:20:08;;;;;;;15.52;5.28;;;9.40;76.70;;;;;;4157565;28;20044;-82
2022/05/13 04:22:13;;;;;;;12.65;5.00;;;9.40;76.80;;;;;;4174646;28;20064;-83
2022/05/13 04:24:17;;;;;;;9.65;4.38;;;9.40;76.60;;;;;;4154778;28;20160;-82
2022/05/13 04:26:18;;;;;;;17.52;5.03;;;9.50;76.70;;;;;;4172939;28;20040;-83
2022/05/13 04:28:19;;;;;;;19.65;5.18;;;9.60;77.00;;;;;;4168152;28;20055;-81
2022/05/13 04:30:20;;;;;;;12.48;4.53;;;9.50;77.10;;;;;;4172900;28;20033;-83
2022/05/13 04:32:20;;;;;;;10.60;4.47;;;9.50;76.90;;;;;;4157790;28;20096;-81
2022/05/13 04:34:21;;;;;;;12.88;3.83;;;9.50;76.90;;;;;;4174921;28;20044;-81
2022/05/13 04:36:23;;;;;;;15.55;4.68;;;9.60;76.90;;;;;;4165668;28;20029;-81
2022/05/13 04:38:24;;;;;;;14.20;4.65;;;9.60;76.90;;;;;;4169252;28;20515;-82
2022/05/13 04:40:24;;;;;;;10.60;3.72;;;9.60;76.90;;;;;;4167375;28;20039;-80
2022/05/13 04:44:45;;;;;;;14.85;4.28;;;9.70;76.80;;;;;;4176165;28;20725;-82
2022/05/13 04:46:45;;;;;;;12.15;3.75;;;9.70;76.90;;;;;;4175586;28;20017;-83
2022/05/13 04:48:49;;;;;;;10.95;4.00;;;9.70;76.70;;;;;;4173769;28;20356;-81
2022/05/13 04:50:51;;;;;;;21.67;4.20;;;9.70;76.70;;;;;;4157650;28;20609;-80
2022/05/13 04:52:52;;;;;;;8.98;3.53;;;9.70;76.70;;;;;;4174188;28;20044;-81
2022/05/13 04:54:53;;;;;;;10.32;3.22;;;9.80;76.60;;;;;;4173531;28;20056;-82
2022/05/13 04:56:53;;;;;;;14.77;4.00;;;9.70;76.50;;;;;;4174879;28;20029;-83
2022/05/13 04:58:54;;;;;;;8.77;3.60;;;9.80;77.30;;;;;;4147469;28;20676;-82
2022/05/13 05:00:57;;;;;;;12.95;3.47;;;9.80;76.40;;;;;;4165467;28;20032;-82
2022/05/13 05:02:58;;;;;;;9.27;3.13;;;9.80;76.40;;;;;;4173773;28;20033;-82
2022/05/13 05:04:59;;;;;;;12.05;3.55;;;9.90;76.40;;;;;;4140623;28;20036;-81
2022/05/13 05:07:00;;;;;;;11.13;3.78;;;9.90;76.40;;;;;;4176828;28;20021;-82
2022/05/13 05:09:00;;;;;;;9.95;3.45;;;10.00;76.50;;;;;;4175008;28;20276;-81
2022/05/13 05:11:02;;;;;;;9.98;3.38;;;9.90;76.40;;;;;;4172088;28;20033;-81
2022/05/13 05:13:06;;;;;;;11.90;3.95;;;9.90;76.30;;;;;;4148232;28;20784;-81
2022/05/13 05:15:08;;;;;;;8.27;2.78;;;9.90;76.30;;;;;;4148020;28;20108;-82
2022/05/13 05:17:09;;;;;;;9.52;3.28;;;10.00;76.30;;;;;;4189376;28;20029;-83
2022/05/13 05:19:10;;;;;;;12.05;3.30;;;10.00;76.30;;;;;;4184875;28;20029;-82
2022/05/13 05:21:11;;;;;;;13.88;3.60;;;10.00;76.20;;;;;;4179638;28;20040;-82
2022/05/13 05:23:24;;;;;;;12.50;4.03;;;10.10;76.30;;;;;;4176705;28;20041;-82
2022/05/13 05:25:28;;;;;;;14.65;4.18;;;10.10;76.40;;;;;;4151371;28;20270;-82
2022/05/13 05:27:29;;;;;;;11.82;3.55;;;10.10;76.20;;;;;;4156488;28;20026;-82
2022/05/13 05:29:30;;;;;;;8.25;3.95;;;10.10;76.40;;;;;;4180346;28;20051;-83
2022/05/13 05:31:30;;;;;;;8.88;3.92;;;10.20;76.30;;;;;;4178404;28;20029;-81
2022/05/13 05:33:31;;;;;;;13.23;4.03;;;10.10;76.60;;;;;;4184517;28;20047;-81
2022/05/13 05:35:33;;;;;;;15.05;4.55;;;10.20;76.40;;;;;;4184166;28;20040;-82
2022/05/13 05:37:33;;;;;;;10.75;3.85;;;10.20;76.40;;;;;;4184922;28;20048;-82
2022/05/13 05:39:34;;;;;;;9.60;4.18;;;10.30;77.20;;;;;;4187267;28;20394;-83
2022/05/13 05:41:35;;;;;;;10.80;3.83;;;10.30;76.40;;;;;;4186092;28;20059;-83
2022/05/13 05:43:35;;;;;;;18.05;5.38;;;10.30;76.40;;;;;;4165587;28;20033;-82
2022/05/13 05:45:38;;;;;;;14.50;5.25;;;10.30;76.70;;;;;;4185347;28;20065;-83
2022/05/13 05:47:38;;;;;;;17.20;5.85;;;10.30;76.70;;;;;;4162714;28;20021;-83
2022/05/13 05:49:39;;;;;;;15.25;5.50;;;10.40;77.10;;;;;;4181009;28;20087;-83
2022/05/13 05:51:40;;;;;;;18.38;5.82;;;10.40;76.90;;;;;;4184888;28;20039;-82
2022/05/13 05:58:19;;;;;;;16.30;5.97;;;10.50;77.00;;;;;;4189627;28;20078;-83
2022/05/13 06:00:20;;;;;;;21.83;6.63;;;10.50;77.00;;;;;;4188735;28;20036;-81
2022/05/13 06:02:21;;;;;;;26.33;6.70;;;10.60;77.10;;;;;;4176889;28;20033;-80
2022/05/13 06:04:22;;;;;;;17.27;6.57;;;10.60;77.10;;;;;;4170233;28;20026;-81
2022/05/13 06:06:23;;;;;;;19.42;6.47;;;10.70;77.30;;;;;;4183950;28;20017;-81
2022/05/13 06:08:23;;;;;;;16.05;6.60;;;10.70;77.30;;;;;;4187336;28;20021;-81
2022/05/13 06:10:26;;;;;;;34.17;7.07;;;10.70;77.30;;;;;;4184644;28;20056;-83
2022/05/13 06:12:26;;;;;;;21.02;7.07;;;10.70;77.30;;;;;;4182122;28;20525;-81
2022/05/13 06:14:27;;;;;;;17.27;7.25;;;10.80;77.30;;;;;;4182744;28;20036;-83
2022/05/13 06:16:29;;;;;;;17.23;7.38;;;10.80;77.30;;;;;;4164254;28;20040;-83
2022/05/13 06:18:30;;;;;;;18.80;7.53;;;10.80;77.40;;;;;;4144272;28;20034;-80
2022/05/13 06:20:31;;;;;;;24.10;8.75;;;10.90;77.50;;;;;;4175303;28;20044;-82
2022/05/13 06:22:32;;;;;;;18.00;7.88;;;10.90;77.60;;;;;;4177002;28;20066;-82
2022/05/13 06:24:33;;;;;;;23.00;7.85;;;11.00;77.80;;;;;;4180058;28;20028;-81
2022/05/13 06:26:34;;;;;;;23.15;8.15;;;11.00;77.80;;;;;;4180636;28;20029;-84
2022/05/13 06:28:35;;;;;;;20.38;8.45;;;11.10;78.10;;;;;;4178067;28;20033;-83
2022/05/13 06:30:36;;;;;;;16.73;7.82;;;11.10;78.20;;;;;;4174403;28;20134;-82
2022/05/13 06:32:37;;;;;;;22.48;7.32;;;11.20;78.30;;;;;;4165713;28;20025;-82
2022/05/13 06:34:38;;;;;;;18.02;8.18;;;11.40;78.80;;;;;;4181440;28;20303;-82
2022/05/13 06:36:39;;;;;;;32.88;8.27;;;11.40;78.80;;;;;;4159355;28;20053;-84
2022/05/13 06:38:40;;;;;;;17.67;7.47;;;11.40;78.60;;;;;;4158518;28;20040;-84
2022/05/13 06:40:41;;;;;;;22.65;7.90;;;11.50;78.70;;;;;;4176907;28;20029;-82
2022/05/13 06:42:41;;;;;;;25.92;8.02;;;11.60;78.70;;;;;;4175458;28;20033;-84
2022/05/13 06:44:42;;;;;;;19.20;7.82;;;11.70;78.70;;;;;;4177435;28;20045;-84
2022/05/13 06:46:43;;;;;;;17.80;7.85;;;11.70;78.20;;;;;;4158412;28;20029;-81
2022/05/13 06:48:44;;;;;;;22.33;8.43;;;11.80;78.00;;;;;;4171881;28;20040;-83
2022/05/13 06:50:46;;;;;;;18.42;7.68;;;11.80;77.70;;;;;;4159064;28;20424;-83
2022/05/13 06:52:47;;;;;;;19.10;7.57;;;11.90;77.50;;;;;;4152554;28;20025;-82
2022/05/13 06:54:47;;;;;;;22.65;7.78;;;11.90;77.20;;;;;;4176617;28;20060;-85
2022/05/13 06:56:54;;;;;;;20.70;7.78;;;12.10;77.30;;;;;;4157519;28;20033;-85
2022/05/13 06:58:55;;;;;;;17.10;7.30;;;12.00;76.90;;;;;;4156368;28;20039;-86
2022/05/13 07:00:55;;;;;;;18.45;7.20;;;12.10;76.80;;;;;;4174477;28;20088;-86
2022/05/13 07:02:57;;;;;;;24.27;7.50;;;12.10;76.60;;;;;;4154052;28;20427;-86
2022/05/13 07:04:58;;;;;;;20.35;7.25;;;12.10;76.30;;;;;;4177303;28;20029;-86
2022/05/13 07:07:01;;;;;;;15.98;6.30;;;12.10;76.20;;;;;;4181419;28;20033;-85
2022/05/13 07:09:01;;;;;;;12.98;4.75;;;12.10;75.90;;;;;;4178045;28;20097;-85
2022/05/13 07:11:23;;;;;;;19.65;5.47;;;12.10;75.40;;;;;;4181664;28;20116;-86
2022/05/13 07:13:26;;;;;;;18.10;5.30;;;12.10;74.80;;;;;;4160919;28;20060;-86
2022/05/13 07:15:33;;;;;;;17.23;6.05;;;12.10;73.80;;;;;;4144975;28;20030;-85
2022/05/13 07:17:38;;;;;;;14.90;5.70;;;12.10;73.70;;;;;;4159629;28;20037;-85
2022/05/13 07:19:40;;;;;;;14.73;4.80;;;12.10;73.70;;;;;;4176089;28;20036;-85
2022/05/13 07:21:46;;;;;;;13.95;3.33;;;12.00;73.80;;;;;;4157773;28;20067;-87
2022/05/13 07:23:47;;;;;;;11.20;3.05;;;12.00;73.60;;;;;;4178775;28;20013;-86
2022/05/13 07:25:50;;;;;;;14.37;2.53;;;11.90;73.40;;;;;;4162013;28;20430;-87
2022/05/13 07:27:55;;;;;;;13.82;2.70;;;11.90;73.30;;;;;;4160762;28;20311;-86
2022/05/13 07:30:04;;;;;;;9.32;2.88;;;11.90;73.30;;;;;;4143741;28;20540;-85
2022/05/13 07:32:09;;;;;;;10.48;2.30;;;11.90;73.20;;;;;;4161211;28;20035;-85
2022/05/13 07:34:19;;;;;;;14.38;2.60;;;11.80;73.00;;;;;;4178342;28;20102;-85
2022/05/13 07:36:33;;;;;;;13.60;2.37;;;11.90;72.80;;;;;;4174200;28;20963;-85
2022/05/13 07:38:34;;;;;;;9.98;2.50;;;11.80;72.60;;;;;;4160363;28;20029;-85
2022/05/13 07:43:17;;;;;;;12.75;2.88;;;11.70;72.70;;;;;;4153879;28;20084;-85
2022/05/13 07:45:19;;;;;;;14.13;2.67;;;11.70;72.70;;;;;;4175431;28;20032;-84
2022/05/13 07:47:26;;;;;;;8.95;2.47;;;11.70;72.80;;;;;;4143666;28;20033;-85
2022/05/13 07:49:47;;;;;;;6.20;2.00;;;11.70;72.90;;;;;;4175553;28;20143;-84
2022/05/13 07:52:08;;;;;;;12.77;2.53;;;11.60;73.00;;;;;;4174129;28;20044;-84
2022/05/13 07:54:27;;;;;;;14.27;2.80;;;11.70;73.10;;;;;;4156655;28;20052;-84
2022/05/13 07:56:42;;;;;;;14.65;2.45;;;11.70;73.20;;;;;;4176004;28;20727;-85
2022/05/13 07:58:49;;;;;;;11.20;2.92;;;11.70;73.30;;;;;;4160475;28;20030;-84
2022/05/13 08:00:54;;;;;;;11.13;2.45;;;11.70;73.50;;;;;;4176167;28;20032;-84
2022/05/13 08:03:15;;;;;;;15.07;2.97;;;11.70;73.80;;;;;;4156805;28;20299;-85
2022/05/13 08:05:19;;;;;;;15.10;2.60;;;11.70;74.10;;;;;;4172564;28;20025;-85
2022/05/13 08:07:40;;;;;;;11.45;2.78;;;11.70;74.20;;;;;;4154596;28;20025;-85
2022/05/13 08:09:51;;;;;;;15.88;2.78;;;11.90;74.90;;;;;;4157193;28;20013;-87
2022/05/13 08:12:12;;;;;;;12.48;2.60;;;11.90;75.10;;;;;;4175790;28;20758;-86
2022/05/13 08:14:33;;;;;;;11.40;2.30;;;12.00;75.80;;;;;;4176701;28;20106;-85
2022/05/13 08:16:53;;;;;;;8.10;1.80;;;12.00;75.70;;;;;;4172781;28;20191;-86
2022/05/13 08:19:14;;;;;;;5.93;1.98;;;12.10;75.70;;;;;;4176945;28;20041;-86
2022/05/13 08:21:21;;;;;;;10.80;1.98;;;12.20;75.80;;;;;;4158205;28;20036;-85
2022/05/13 08:23:21;;;;;;;7.65;1.83;;;12.30;75.10;;;;;;4177120;28;20044;-84
2022/05/13 08:25:22;;;;;;;10.35;1.77;;;12.40;74.90;;;;;;4176991;28;20044;-86
2022/05/13 08:27:23;;;;;;;8.35;1.60;;;12.40;74.80;;;;;;4175323;28;20032;-85
2022/05/13 08:29:24;;;;;;;6.25;1.92;;;12.50;74.80;;;;;;4157700;28;20475;-85
2022/05/13 08:31:27;;;;;;;5.90;1.42;;;12.60;74.50;;;;;;4176334;28;20533;-85
2022/05/13 08:33:28;;;;;;;9.25;1.80;;;12.70;74.00;;;;;;4161781;28;20120;-86
2022/05/13 08:35:29;;;;;;;11.25;2.40;;;12.80;73.60;;;;;;4176347;28;20037;-85
2022/05/13 08:37:30;;;;;;;11.10;1.65;;;12.90;72.50;;;;;;4159078;28;20064;-85
2022/05/13 08:39:41;;;;;;;7.72;1.92;;;12.90;72.00;;;;;;4173661;28;20029;-84
2022/05/13 08:42:02;;;;;;;8.25;1.92;;;13.10;71.00;;;;;;4143003;28;20033;-85
2022/05/13 08:44:07;;;;;;;10.55;2.60;;;13.10;69.90;;;;;;4175711;28;20029;-85
2022/05/13 08:46:45;;;;;;;6.70;2.00;;;13.20;69.40;;;;;;4174063;28;20029;-84
2022/05/13 08:49:24;;;;;;;8.00;1.88;;;13.30;69.30;;;;;;4172398;28;20033;-84
2022/05/13 08:51:51;;;;;;;8.15;1.83;;;13.40;69.20;;;;;;4173469;28;20047;-84
2022/05/13 08:54:15;;;;;;;8.13;1.95;;;13.40;68.90;;;;;;4185191;28;20124;-85
2022/05/13 08:56:36;;;;;;;;;;;13.60;69.10;;;;;;4162907;28;20068;-84
2022/05/13 08:59:25;;;;;;;12.50;2.35;;;13.70;68.40;;;;;;4175416;28;19913;-85
2022/05/13 09:01:51;;;;;;;9.35;2.10;;;13.80;67.90;;;;;;4159262;28;20139;-85
2022/05/13 09:04:45;;;;;;;12.23;2.00;;;13.90;67.10;;;;;;4169378;28;20025;-86
2022/05/13 09:07:01;;;;;;;10.45;2.42;;;14.00;65.80;;;;;;4172673;28;20101;-85
2022/05/13 09:09:05;;;;;;;6.80;2.10;;;14.20;66.50;;;;;;4171937;28;20432;-84
2022/05/13 09:11:24;;;;;;;11.90;2.60;;;14.20;66.30;;;;;;4159338;28;20541;-85
2022/05/13 09:13:48;;;;;;;8.80;2.60;;;14.30;65.60;;;;;;4158572;28;20136;-86
2022/05/13 09:15:50;;;;;;;;;;;14.40;64.60;;;;;;4172571;28;20029;-85
2022/05/13 09:18:07;;;;;;;9.13;2.40;;;14.50;64.30;;;;;;4161013;28;20418;-85
2022/05/13 09:20:19;;;;;;;12.40;2.25;;;14.60;64.00;;;;;;4176784;28;20033;-85
2022/05/13 09:22:20;;;;;;;13.95;3.50;;;14.60;63.90;;;;;;4155325;28;20837;-85
2022/05/13 09:24:21;;;;;;;17.50;3.40;;;14.70;63.40;;;;;;4170662;28;20025;-84
2022/05/13 09:26:26;;;;;;;21.38;3.65;;;14.80;63.20;;;;;;4173586;28;20083;-86
2022/05/13 09:28:28;;;;;;;14.63;3.08;;;14.90;62.80;;;;;;4152390;28;20054;-85
2022/05/13 09:30:35;;;;;;;13.07;2.60;;;15.00;63.50;;;;;;4173123;28;20033;-86
2022/05/13 09:32:36;;;;;;;12.60;2.92;;;15.10;62.70;;;;;;4166293;28;20033;-85
2022/05/13 09:34:46;;;;;;;19.10;2.85;;;15.20;62.10;;;;;;4149747;28;20545;-86
2022/05/13 09:36:49;;;;;;;16.15;2.90;;;15.30;61.20;;;;;;4171852;28;20155;-85
2022/05/13 09:38:52;;;;;;;18.98;2.88;;;15.30;60.20;;;;;;4151439;28;20036;-85
2022/05/13 09:41:03;;;;;;;12.07;2.65;;;15.40;60.30;;;;;;4173703;28;20036;-86
2022/05/13 09:43:41;;;;;;;13.88;3.17;;;15.50;60.30;;;;;;4162737;28;21515;-85
2022/05/13 09:46:31;;;;;;;17.98;2.80;;;15.50;60.20;;;;;;4162436;28;20384;-87
2022/05/13 09:48:35;;;;;;;17.05;3.03;;;15.60;60.20;;;;;;4167249;28;20156;-86
2022/05/13 09:50:53;;;;;;;10.60;1.80;;;15.70;59.70;;;;;;4152144;28;20065;-88
2022/05/13 09:53:23;;;;;;;12.07;1.67;;;15.70;58.10;;;;;;4151494;28;20028;-88
2022/05/13 09:55:31;;;;;;;9.55;1.90;;;15.80;58.00;;;;;;4169020;28;20599;-88
2022/05/13 09:57:41;;;;;;;13.40;1.48;;;15.80;57.50;;;;;;4150616;28;20029;-87
2022/05/13 09:59:54;;;;;;;9.85;1.70;;;15.80;55.90;;;;;;4169615;28;20032;-90
2022/05/13 10:02:31;;;;;;;8.63;1.70;;;15.80;55.80;;;;;;4168913;28;20037;-88
2022/05/13 10:04:55;;;;;;;7.43;1.63;;;15.70;55.30;;;;;;4169095;28;20697;-89
2022/05/13 10:07:16;;;;;;;8.02;1.55;;;15.60;55.80;;;;;;4170547;28;20087;-90
2022/05/13 10:15:10;;;;;;;12.27;2.10;;;15.20;56.80;;;;;;4170313;28;20029;-88
2022/05/13 10:17:23;;;;;;;9.45;2.22;;;15.10;57.60;;;;;;4170557;28;20032;-87
2022/05/13 10:19:52;;;;;;;9.07;1.85;;;15.00;58.60;;;;;;4168812;28;20835;-90
2022/05/13 10:22:21;;;;;;;10.32;1.77;;;14.80;59.10;;;;;;4169497;28;20051;-87
2022/05/13 10:24:32;;;;;;;10.90;2.15;;;14.80;59.20;;;;;;4168430;28;20024;-89
2022/05/13 10:26:56;;;;;;;8.15;1.23;;;14.70;59.40;;;;;;4171127;28;20470;-89
2022/05/13 10:29:45;;;;;;;7.50;1.58;;;14.60;59.40;;;;;;4157140;28;20838;-90
2022/05/13 10:32:42;;;;;;;4.95;1.15;;;14.50;59.80;;;;;;4170631;28;20033;-90
2022/05/13 10:35:09;;;;;;;7.80;1.77;;;14.50;60.40;;;;;;4136241;28;20033;-89
2022/05/13 10:37:19;;;;;;;8.75;1.98;;;14.40;60.60;;;;;;4138944;28;20026;-91
2022/05/13 10:39:44;;;;;;;10.00;2.10;;;14.40;60.90;;;;;;4117166;28;20065;-91
2022/05/13 10:41:57;;;;;;;14.18;2.20;;;14.30;61.20;;;;;;4127054;28;20061;-89
2022/05/13 10:44:26;;;;;;;9.75;1.92;;;14.30;61.80;;;;;;4135206;28;20034;-89
2022/05/13 10:47:00;;;;;;;8.77;2.15;;;14.30;62.60;;;;;;4137793;28;20038;-88
2022/05/13 10:49:26;;;;;;;9.25;2.00;;;14.40;63.30;;;;;;4137181;28;20443;-89
2022/05/13 10:52:12;;;;;;;10.60;2.50;;;14.30;63.60;;;;;;4135226;28;20069;-90
2022/05/13 10:54:57;;;;;;;12.02;2.28;;;14.40;64.00;;;;;;4133570;28;20506;-89
2022/05/13 10:57:18;;;;;;;15.55;2.70;;;14.40;63.50;;;;;;4137532;28;20043;-90
2022/05/13 11:00:12;;;;;;;17.10;3.08;;;14.40;62.80;;;;;;4121868;28;20113;-88
2022/05/13 11:02:36;;;;;;;9.88;2.70;;;14.40;62.70;;;;;;4077471;28;20047;-84
2022/05/13 11:05:21;;;;;;;12.85;2.50;;;14.40;62.50;;;;;;4100331;28;20449;-82
2022/05/13 11:08:14;;;;;;;8.32;2.30;;;14.40;62.50;;;;;;4103630;28;20039;-80
2022/05/13 11:10:40;;;;;;;12.23;3.20;;;14.30;62.40;;;;;;4109685;28;20452;-81
2022/05/13 11:13:20;;;;;;;19.35;3.33;;;14.20;62.80;;;;;;4114003;28;20877;-81
2022/05/13 11:15:47;;;;;;;9.85;2.72;;;14.10;63.40;;;;;;4086179;28;20031;-81
2022/05/13 11:18:20;;;;;;;12.52;2.60;;;14.10;64.00;;;;;;4118537;28;20133;-82
2022/05/13 11:21:05;;;;;;;10.63;2.50;;;14.00;64.50;;;;;;4119077;28;20455;-82
2022/05/13 11:26:29;;;;;;;8.30;1.90;;;14.00;65.30;;;;;;4107830;28;20046;-81